Terminal Aerodrome Forecast
Issued by NWS Melbourne, FL

Home | Current Version | Previous Version | Text Only | Print | Product List | Glossary On
Versions: 1 2 3 4 5 6 7 8 9 10 11 12 13
000
FTUS42 KMLB 221731
TAFVRB
TAF
KVRB 221731Z 2218/2318 06011KT P6SM VCSH SCT030 BKN060
     FM230000 06007KT P6SM VCSH SCT025 BKN060
     FM231400 07011KT P6SM VCSH SCT025 SCT100 BKN250=

USA.gov is the U.S. government's official web portal to all federal, state and local government web resources and services.